createdAt,value
2022-12-04T00:00:39.765Z,51.90
2022-12-04T00:03:25.899Z,51.72
2022-12-04T00:06:16.945Z,56.25
2022-12-04T00:09:03.715Z,51.13
2022-12-04T00:11:50.065Z,49.30
2022-12-04T00:14:54.424Z,48.85
2022-12-04T00:17:42.421Z,50.33
2022-12-04T00:20:28.589Z,53.90
2022-12-04T00:23:15.223Z,51.20
2022-12-04T00:26:11.906Z,53.33
2022-12-04T00:28:58.408Z,44.80
2022-12-04T00:31:44.935Z,50.45
2022-12-04T00:34:30.882Z,47.22
2022-12-04T00:37:17.170Z,50.33
2022-12-04T00:40:03.236Z,50.67
2022-12-04T00:42:49.675Z,50.05
2022-12-04T00:45:35.887Z,49.92
2022-12-04T00:48:22.161Z,40.70
2022-12-04T00:51:10.120Z,49.08
2022-12-04T00:53:56.311Z,50.63
2022-12-04T00:56:42.437Z,48.95
2022-12-04T00:59:28.592Z,46.10
2022-12-04T01:02:14.764Z,52.05
2022-12-04T01:05:02.251Z,47.28
2022-12-04T01:07:49.004Z,49.53
2022-12-04T01:10:35.510Z,51.20
2022-12-04T01:13:21.993Z,46.00
2022-12-04T01:16:08.858Z,49.92
2022-12-04T01:18:55.316Z,43.22
2022-12-04T01:21:42.205Z,48.75
2022-12-04T01:24:29.018Z,45.97
2022-12-04T01:27:15.116Z,39.97
2022-12-04T01:30:01.215Z,42.83
2022-12-04T01:32:47.427Z,46.85
2022-12-04T01:35:33.395Z,47.45
2022-12-04T01:38:19.554Z,45.22
2022-12-04T01:41:06.244Z,49.45
2022-12-04T01:44:11.273Z,47.13
2022-12-04T01:46:58.320Z,44.67
2022-12-04T01:49:47.153Z,44.58
2022-12-04T01:52:33.988Z,44.80
2022-12-04T01:55:20.025Z,39.95
2022-12-04T01:58:07.783Z,47.42
2022-12-04T02:00:58.547Z,47.20
2022-12-04T02:03:45.276Z,41.67
2022-12-04T02:06:31.453Z,44.90
2022-12-04T02:09:23.017Z,42.63
2022-12-04T02:12:24.772Z,45.38
2022-12-04T02:15:29.770Z,45.42
2022-12-04T02:18:41.738Z,45.00
2022-12-04T02:21:35.312Z,42.93
2022-12-04T02:24:24.060Z,42.63
2022-12-04T02:27:18.880Z,42.25
2022-12-04T02:30:07.248Z,43.08
2022-12-04T02:32:59.434Z,43.38
2022-12-04T02:35:47.905Z,40.67
2022-12-04T02:38:39.874Z,46.10
2022-12-04T02:41:46.435Z,44.22
2022-12-04T02:44:38.067Z,43.42
2022-12-04T02:47:25.272Z,46.22
2022-12-04T02:50:15.785Z,47.97
2022-12-04T02:53:06.479Z,44.75
2022-12-04T02:55:54.551Z,45.45
2022-12-04T02:58:43.554Z,42.95
2022-12-04T03:01:35.098Z,45.88
2022-12-04T03:04:23.260Z,48.85
2022-12-04T03:07:15.898Z,45.53
2022-12-04T03:10:05.061Z,38.60
2022-12-04T03:12:54.262Z,44.70
2022-12-04T03:15:43.296Z,44.13
2022-12-04T03:18:49.722Z,46.25
2022-12-04T03:21:38.561Z,46.67
2022-12-04T03:24:27.132Z,51.90
2022-12-04T03:27:25.792Z,49.17
2022-12-04T03:30:17.528Z,46.40
2022-12-04T03:33:08.901Z,49.00
2022-12-04T03:36:03.178Z,51.50
2022-12-04T03:38:56.145Z,54.90
2022-12-04T03:42:00.970Z,53.60
2022-12-04T03:44:47.238Z,48.38
2022-12-04T03:47:43.632Z,49.78
2022-12-04T03:50:35.141Z,52.45
2022-12-04T03:53:24.204Z,54.95
2022-12-04T03:56:12.796Z,56.42
2022-12-04T03:59:01.716Z,52.97
2022-12-04T04:01:49.606Z,57.92
2022-12-04T04:04:37.081Z,57.28
2022-12-04T04:07:40.047Z,57.97
2022-12-04T04:10:27.469Z,58.17
2022-12-04T04:13:35.407Z,52.28
2022-12-04T04:16:42.307Z,55.53
2022-12-04T04:19:49.590Z,59.40
2022-12-04T04:22:56.318Z,62.83
2022-12-04T04:25:46.612Z,56.58
2022-12-04T04:28:42.761Z,54.58
2022-12-04T04:31:35.058Z,57.80
2022-12-04T04:34:40.858Z,41.13
2022-12-04T04:37:35.064Z,57.50
2022-12-04T04:40:36.836Z,59.85
2022-12-04T04:43:23.082Z,61.38
2022-12-04T04:46:14.734Z,59.03
2022-12-04T04:49:02.629Z,61.38
2022-12-04T04:51:48.998Z,60.08
2022-12-04T04:54:36.913Z,63.55
2022-12-04T04:57:30.283Z,64.32
2022-12-04T05:00:17.889Z,57.30
2022-12-04T05:03:04.982Z,60.45
2022-12-04T05:05:51.531Z,63.17
2022-12-04T05:08:38.217Z,64.32
2022-12-04T05:11:24.563Z,67.55
2022-12-04T05:14:10.842Z,67.20
2022-12-04T05:17:01.682Z,65.63
2022-12-04T05:19:54.820Z,60.90
2022-12-04T05:25:28.101Z,59.25
2022-12-04T05:28:14.588Z,65.68
2022-12-04T05:31:04.477Z,65.53
2022-12-04T05:33:50.966Z,68.30
2022-12-04T05:36:37.174Z,70.25
2022-12-04T05:39:23.409Z,64.60
2022-12-04T05:42:09.472Z,69.07
2022-12-04T05:44:55.709Z,72.18
2022-12-04T05:47:42.875Z,68.32
2022-12-04T05:50:29.042Z,74.75
2022-12-04T05:53:15.184Z,68.15
2022-12-04T05:56:02.787Z,71.00
2022-12-04T05:58:49.097Z,71.60
2022-12-04T06:01:35.544Z,70.53
2022-12-04T06:04:22.201Z,67.60
2022-12-04T06:07:09.073Z,71.53
2022-12-04T06:09:56.210Z,66.47
2022-12-04T06:12:42.291Z,70.38
2022-12-04T06:15:28.356Z,64.80
2022-12-04T06:18:14.589Z,59.28
2022-12-04T06:21:00.835Z,59.50
2022-12-04T06:23:46.893Z,66.30
2022-12-04T06:26:32.950Z,69.55
2022-12-04T06:29:19.224Z,63.75
2022-12-04T06:32:06.059Z,65.15
2022-12-04T06:34:53.471Z,59.40
2022-12-04T06:37:39.555Z,64.40
2022-12-04T06:40:25.906Z,63.97
2022-12-04T06:43:12.169Z,59.75
2022-12-04T06:46:05.755Z,57.55
2022-12-04T06:48:51.967Z,56.53
2022-12-04T06:51:41.024Z,60.17
2022-12-04T06:54:27.393Z,65.32
2022-12-04T06:57:13.855Z,65.65
2022-12-04T06:59:59.766Z,67.50
2022-12-04T07:02:46.258Z,63.83
2022-12-04T07:05:32.487Z,59.72
2022-12-04T07:08:19.490Z,60.38
2022-12-04T07:11:05.688Z,57.17
2022-12-04T07:13:52.101Z,60.20
2022-12-04T07:16:41.225Z,55.40
2022-12-04T07:19:28.295Z,56.55
2022-12-04T07:22:14.627Z,57.45
2022-12-04T07:25:00.918Z,60.95
2022-12-04T07:27:47.208Z,60.40
2022-12-04T07:30:33.470Z,54.95
2022-12-04T07:33:19.668Z,57.25
2022-12-04T07:36:07.048Z,57.50
2022-12-04T07:38:55.252Z,57.35
2022-12-04T07:41:41.473Z,57.67
2022-12-04T07:44:27.896Z,53.20
2022-12-04T07:47:14.402Z,57.33
2022-12-04T07:50:00.833Z,49.40
2022-12-04T07:52:47.293Z,53.00
2022-12-04T07:55:33.497Z,53.10
2022-12-04T07:58:19.656Z,53.08
2022-12-04T08:01:16.654Z,56.55
2022-12-04T08:04:04.642Z,48.97
2022-12-04T08:06:50.992Z,52.03
2022-12-04T08:09:37.207Z,51.72
2022-12-04T08:12:23.254Z,56.95
2022-12-04T08:15:09.993Z,54.55
2022-12-04T08:17:56.468Z,56.20
2022-12-04T08:20:42.643Z,51.92
2022-12-04T08:23:29.036Z,56.03
2022-12-04T08:26:15.387Z,55.03
2022-12-04T08:29:04.966Z,57.38
2022-12-04T08:31:51.200Z,54.45
2022-12-04T08:34:38.082Z,62.03
2022-12-04T08:37:24.642Z,52.13
2022-12-04T08:40:11.971Z,51.70
2022-12-04T08:42:58.164Z,58.88
2022-12-04T08:45:44.214Z,53.25
2022-12-04T08:48:30.773Z,57.75
2022-12-04T08:51:25.441Z,59.40
2022-12-04T08:54:13.333Z,54.67
2022-12-04T08:56:59.752Z,61.83
2022-12-04T08:59:45.896Z,59.40
2022-12-04T09:02:32.182Z,62.17
2022-12-04T09:05:18.369Z,58.22
2022-12-04T09:08:04.480Z,56.78
2022-12-04T09:10:50.857Z,61.47
2022-12-04T09:13:38.456Z,56.55
2022-12-04T09:16:37.677Z,63.60
2022-12-04T09:19:23.959Z,56.17
2022-12-04T09:22:11.033Z,62.97
2022-12-04T09:24:57.299Z,62.58
2022-12-04T09:27:43.779Z,64.70
2022-12-04T09:30:30.064Z,64.70
2022-12-04T09:33:16.567Z,71.80
2022-12-04T09:36:04.404Z,64.97
2022-12-04T09:38:52.068Z,64.28
2022-12-04T09:41:41.255Z,64.22
2022-12-04T09:44:33.393Z,65.45
2022-12-04T09:47:22.660Z,69.43
2022-12-04T09:50:21.562Z,71.18
2022-12-04T09:53:11.819Z,68.28
2022-12-04T09:56:03.673Z,70.15
2022-12-04T09:59:01.360Z,70.85
2022-12-04T10:01:49.195Z,71.88
2022-12-04T10:04:35.372Z,71.75
2022-12-04T10:07:26.746Z,66.93
2022-12-04T10:10:21.960Z,69.20
2022-12-04T10:13:27.021Z,70.13
2022-12-04T10:16:23.002Z,70.28
2022-12-04T10:19:09.527Z,74.45
2022-12-04T10:22:18.775Z,72.47
2022-12-04T10:25:09.867Z,74.50
2022-12-04T10:28:03.609Z,68.90
2022-12-04T10:30:53.124Z,74.90
2022-12-04T10:33:42.136Z,70.20
2022-12-04T10:36:34.248Z,69.35
2022-12-04T10:39:24.932Z,71.75
2022-12-04T10:42:30.051Z,73.88
2022-12-04T10:45:16.628Z,72.57
2022-12-04T10:48:03.211Z,69.85
2022-12-04T10:50:49.945Z,67.13
2022-12-04T10:53:38.247Z,67.15
2022-12-04T10:56:26.086Z,67.00
2022-12-04T10:59:16.740Z,66.32
2022-12-04T11:02:26.693Z,66.75
2022-12-04T11:05:32.192Z,70.63
2022-12-04T11:08:27.053Z,72.22
2022-12-04T11:11:14.707Z,63.50
2022-12-04T11:14:15.148Z,69.38
2022-12-04T11:17:02.936Z,68.05
2022-12-04T11:19:59.926Z,65.00
2022-12-04T11:22:53.127Z,69.32
2022-12-04T11:28:41.080Z,63.25
2022-12-04T11:31:28.763Z,65.72
2022-12-04T11:34:19.566Z,61.85
2022-12-04T11:37:07.445Z,71.20
2022-12-04T11:39:54.689Z,71.18
2022-12-04T11:42:41.570Z,64.53
2022-12-04T11:45:27.680Z,64.78
2022-12-04T11:48:15.546Z,64.10
2022-12-04T11:51:08.316Z,69.40
2022-12-04T11:54:17.932Z,68.95
2022-12-04T11:57:19.592Z,72.55
2022-12-04T12:00:35.167Z,72.88
2022-12-04T12:03:27.747Z,66.95
2022-12-04T12:06:31.108Z,65.07
2022-12-04T12:09:35.760Z,67.43
2022-12-04T12:12:34.129Z,70.22
2022-12-04T12:15:26.479Z,66.40
2022-12-04T12:18:27.366Z,64.37
2022-12-04T12:21:23.056Z,63.58
2022-12-04T12:24:12.173Z,66.63
2022-12-04T12:27:04.598Z,63.00
2022-12-04T12:30:09.890Z,64.18
2022-12-04T12:33:02.689Z,60.75
2022-12-04T12:35:55.378Z,67.25
2022-12-04T12:39:00.453Z,64.28
2022-12-04T12:41:53.113Z,60.90
2022-12-04T12:44:49.036Z,67.22
2022-12-04T12:47:39.215Z,73.68
2022-12-04T12:50:29.510Z,66.35
2022-12-04T12:53:22.065Z,67.38
2022-12-04T12:56:13.043Z,64.72
2022-12-04T12:59:01.813Z,62.92
2022-12-04T13:01:54.772Z,68.70
2022-12-04T13:04:44.558Z,58.72
2022-12-04T13:07:37.642Z,63.13
2022-12-04T13:10:26.208Z,66.15
2022-12-04T13:13:40.800Z,60.63
2022-12-04T13:16:27.608Z,65.43
2022-12-04T13:19:17.195Z,64.75
2022-12-04T13:22:09.577Z,65.07
2022-12-04T13:25:14.624Z,68.70
2022-12-04T13:28:10.945Z,59.85
2022-12-04T13:31:12.779Z,65.25
2022-12-04T13:34:24.395Z,66.28
2022-12-04T13:37:10.691Z,64.93
2022-12-04T13:40:15.774Z,63.42
2022-12-04T13:43:21.509Z,68.97
2022-12-04T13:46:26.758Z,68.10
2022-12-04T13:49:19.323Z,73.32
2022-12-04T13:52:08.044Z,67.47
2022-12-04T13:54:59.245Z,69.35
2022-12-04T13:57:53.872Z,75.43
2022-12-04T14:00:42.755Z,78.75
2022-12-04T14:03:38.850Z,82.95
2022-12-04T14:06:44.116Z,69.03
2022-12-04T14:09:35.044Z,79.93
2022-12-04T14:12:25.681Z,68.03
2022-12-04T14:15:25.322Z,74.80
2022-12-04T14:18:12.641Z,74.60
2022-12-04T14:21:00.396Z,69.72
2022-12-04T14:23:47.155Z,69.70
2022-12-04T14:27:03.192Z,74.43
2022-12-04T14:29:46.808Z,73.55
2022-12-04T14:35:27.414Z,71.13
2022-12-04T14:38:19.379Z,74.25
2022-12-04T14:41:05.670Z,69.80
2022-12-04T14:43:51.744Z,73.22
2022-12-04T14:46:41.117Z,71.38
2022-12-04T14:49:33.794Z,67.18
2022-12-04T14:52:29.296Z,67.10
2022-12-04T14:55:27.397Z,62.40
2022-12-04T14:58:30.229Z,69.18
2022-12-04T15:01:28.352Z,65.97
2022-12-04T15:04:24.564Z,67.30
2022-12-04T15:07:11.833Z,71.22
2022-12-04T15:10:18.457Z,66.85
2022-12-04T15:13:04.975Z,65.18
2022-12-04T15:15:52.224Z,66.28
2022-12-04T15:18:39.784Z,67.32
2022-12-04T15:21:30.690Z,64.13
2022-12-04T15:24:20.213Z,63.58
2022-12-04T15:27:07.709Z,62.85
2022-12-04T15:29:55.319Z,61.03
2022-12-04T15:32:41.801Z,63.85
2022-12-04T15:35:30.262Z,58.72
2022-12-04T15:38:17.147Z,61.35
2022-12-04T15:41:03.547Z,59.15
2022-12-04T15:44:33.735Z,58.00
2022-12-04T15:47:47.045Z,58.00
2022-12-04T15:50:33.909Z,64.65
2022-12-04T15:53:27.612Z,58.78
2022-12-04T15:56:42.093Z,56.78
2022-12-04T15:59:29.254Z,60.33
2022-12-04T16:02:24.291Z,60.70
2022-12-04T16:05:23.024Z,57.38
2022-12-04T16:08:26.104Z,62.38
2022-12-04T16:11:21.720Z,62.78
2022-12-04T16:14:14.137Z,62.35
2022-12-04T16:17:06.290Z,54.23
2022-12-04T16:19:53.198Z,47.20
2022-12-04T16:22:40.777Z,61.85
2022-12-04T16:25:29.034Z,60.33
2022-12-04T16:28:15.126Z,55.85
2022-12-04T16:31:01.483Z,55.40
2022-12-04T16:33:47.932Z,59.78
2022-12-04T16:36:33.897Z,56.65
2022-12-04T16:39:20.134Z,61.00
2022-12-04T16:42:06.711Z,64.90
2022-12-04T16:44:53.487Z,58.72
2022-12-04T16:47:39.852Z,68.90
2022-12-04T16:50:26.612Z,63.92
2022-12-04T16:53:17.704Z,63.15
2022-12-04T16:56:04.008Z,63.70
2022-12-04T16:58:50.277Z,63.53
2022-12-04T17:01:39.235Z,61.28
2022-12-04T17:04:25.731Z,64.20
2022-12-04T17:07:11.947Z,60.70
2022-12-04T17:09:58.525Z,61.70
2022-12-04T17:12:44.903Z,59.60
2022-12-04T17:15:31.320Z,61.08
2022-12-04T17:18:21.272Z,61.78
2022-12-04T17:21:08.707Z,62.28
2022-12-04T17:23:54.759Z,58.00
2022-12-04T17:26:41.124Z,56.78
2022-12-04T17:29:27.502Z,58.53
2022-12-04T17:32:13.518Z,54.47
2022-12-04T17:34:59.866Z,61.92
2022-12-04T17:37:46.550Z,65.82
2022-12-04T17:40:33.368Z,63.55
2022-12-04T17:43:22.226Z,60.38
2022-12-04T17:46:09.653Z,57.97
2022-12-04T17:48:57.216Z,61.17
2022-12-04T17:51:45.257Z,60.55
2022-12-04T17:54:31.935Z,57.92
2022-12-04T17:57:18.576Z,63.25
2022-12-04T18:00:05.135Z,64.60
2022-12-04T18:02:58.732Z,58.38
2022-12-04T18:05:44.908Z,66.53
2022-12-04T18:08:30.878Z,58.45
2022-12-04T18:11:17.302Z,61.97
2022-12-04T18:14:10.283Z,59.47
2022-12-04T18:16:59.300Z,62.05
2022-12-04T18:19:45.613Z,60.45
2022-12-04T18:22:31.746Z,59.30
2022-12-04T18:25:18.065Z,60.72
2022-12-04T18:28:04.302Z,61.20
2022-12-04T18:30:50.561Z,64.15
2022-12-04T18:33:37.941Z,61.00
2022-12-04T18:36:25.653Z,61.53
2022-12-04T18:39:13.446Z,64.20
2022-12-04T18:41:59.691Z,57.85
2022-12-04T18:44:45.978Z,63.75
2022-12-04T18:47:32.460Z,67.03
2022-12-04T18:50:18.628Z,63.28
2022-12-04T18:53:05.225Z,59.33
2022-12-04T18:55:51.812Z,68.18
2022-12-04T18:58:37.986Z,69.85
2022-12-04T19:01:25.057Z,69.22
2022-12-04T19:04:13.453Z,68.32
2022-12-04T19:06:59.998Z,70.90
2022-12-04T19:10:10.311Z,64.65
2022-12-04T19:12:53.344Z,69.18
2022-12-04T19:15:43.639Z,73.65
2022-12-04T19:18:30.439Z,76.57
2022-12-04T19:21:16.794Z,79.97
2022-12-04T19:24:03.917Z,75.22
2022-12-04T19:26:50.170Z,79.28
2022-12-04T19:29:36.613Z,78.70
2022-12-04T19:32:33.846Z,77.30
2022-12-04T19:35:20.630Z,75.45
2022-12-04T19:38:07.368Z,85.38
2022-12-04T19:41:03.977Z,83.47
2022-12-04T19:43:51.694Z,82.90
2022-12-04T19:46:38.138Z,91.47
2022-12-04T19:49:24.077Z,82.80
2022-12-04T19:52:10.323Z,91.28
2022-12-04T19:54:56.644Z,94.68
2022-12-04T19:57:42.808Z,89.20
2022-12-04T20:00:28.712Z,84.35
2022-12-04T20:03:14.817Z,84.05
2022-12-04T20:06:05.257Z,83.68
2022-12-04T20:08:59.482Z,83.75
2022-12-04T20:11:45.768Z,89.45
2022-12-04T20:14:31.794Z,91.40
2022-12-04T20:17:18.060Z,89.95
2022-12-04T20:20:04.458Z,88.20
2022-12-04T20:22:50.453Z,85.70
2022-12-04T20:25:36.585Z,83.53
2022-12-04T20:28:23.028Z,94.47
2022-12-04T20:31:21.597Z,94.20
2022-12-04T20:34:11.990Z,101.22
2022-12-04T20:36:59.155Z,91.18
2022-12-04T20:39:45.253Z,100.20
2022-12-04T20:42:33.639Z,90.85
2022-12-04T20:45:20.297Z,106.07
2022-12-04T20:48:06.833Z,89.55
2022-12-04T20:50:53.846Z,102.35
2022-12-04T20:53:40.432Z,96.32
2022-12-04T20:56:29.900Z,92.22
2022-12-04T20:59:17.257Z,91.30
2022-12-04T21:02:03.437Z,96.82
2022-12-04T21:04:49.650Z,98.22
2022-12-04T21:07:35.763Z,103.10
2022-12-04T21:10:21.952Z,99.35
2022-12-04T21:13:26.887Z,97.82
2022-12-04T21:16:14.015Z,102.28
2022-12-04T21:19:00.838Z,93.57
2022-12-04T21:21:47.357Z,92.72
2022-12-04T21:24:38.456Z,85.35
2022-12-04T21:27:25.323Z,100.80
2022-12-04T21:30:11.866Z,103.18
2022-12-04T21:32:58.426Z,95.53
2022-12-04T21:35:44.649Z,96.05
2022-12-04T21:38:34.148Z,96.60
2022-12-04T21:41:38.992Z,93.55
2022-12-04T21:44:25.254Z,106.57
2022-12-04T21:47:11.337Z,98.60
2022-12-04T21:49:57.748Z,101.53
2022-12-04T21:52:44.632Z,94.35
2022-12-04T21:55:30.920Z,103.07
2022-12-04T21:58:17.126Z,95.20
2022-12-04T22:01:09.612Z,110.88
2022-12-04T22:03:59.089Z,76.55
2022-12-04T22:06:45.375Z,96.15
2022-12-04T22:09:31.567Z,103.65
2022-12-04T22:12:47.756Z,101.05
2022-12-04T22:15:23.949Z,97.55
2022-12-04T22:18:10.446Z,94.22
2022-12-04T22:20:56.964Z,87.25
2022-12-04T22:23:43.592Z,94.15
2022-12-04T22:26:30.359Z,94.20
2022-12-04T22:29:48.755Z,95.75
2022-12-04T22:32:23.381Z,96.10
2022-12-04T22:35:09.670Z,91.05
2022-12-04T22:37:55.949Z,101.78
2022-12-04T22:40:42.049Z,90.00
2022-12-04T22:43:28.879Z,86.00
2022-12-04T22:46:15.891Z,89.82
2022-12-04T22:49:02.242Z,93.95
2022-12-04T22:51:48.260Z,79.85
2022-12-04T22:54:34.302Z,86.07
2022-12-04T22:57:20.423Z,87.25
2022-12-04T23:00:09.400Z,80.35
2022-12-04T23:02:55.405Z,78.18
2022-12-04T23:05:41.859Z,84.32
2022-12-04T23:08:28.646Z,89.35
2022-12-04T23:11:17.058Z,87.40
2022-12-04T23:14:05.194Z,84.22
2022-12-04T23:16:51.715Z,76.13
2022-12-04T23:19:37.850Z,76.43
2022-12-04T23:22:23.941Z,78.18
2022-12-04T23:25:10.077Z,74.93
2022-12-04T23:27:56.238Z,78.90
2022-12-04T23:30:46.810Z,72.70
2022-12-04T23:33:33.412Z,82.55
2022-12-04T23:36:19.505Z,81.75
2022-12-04T23:39:05.480Z,88.28
2022-12-04T23:41:51.649Z,78.38
2022-12-04T23:44:37.692Z,78.97
2022-12-04T23:47:23.880Z,90.63
2022-12-04T23:50:10.077Z,80.60
2022-12-04T23:52:56.318Z,87.60
2022-12-04T23:55:42.522Z,94.38
2022-12-04T23:58:28.773Z,95.15
